createdAt,value
2023-09-27T00:04:54.064Z,21.31
2023-09-27T00:09:57.166Z,19.45
2023-09-27T00:15:03.070Z,18.20
2023-09-27T00:20:10.854Z,18.61
2023-09-27T00:25:15.490Z,20.86
2023-09-27T00:30:18.479Z,21.88
2023-09-27T00:35:23.775Z,21.52
2023-09-27T00:40:27.922Z,19.51
2023-09-27T00:45:31.187Z,19.33
2023-09-27T00:50:34.046Z,21.34
2023-09-27T00:55:37.216Z,22.12
2023-09-27T01:00:40.462Z,20.66
2023-09-27T01:05:43.697Z,19.04
2023-09-27T01:10:47.455Z,19.12
2023-09-27T01:15:50.530Z,21.25
2023-09-27T01:20:53.358Z,21.46
2023-09-27T01:26:01.139Z,19.65
2023-09-27T01:31:04.148Z,18.40
2023-09-27T01:36:07.930Z,18.76
2023-09-27T01:41:10.706Z,21.03
2023-09-27T01:46:13.515Z,22.00
2023-09-27T01:51:16.432Z,21.10
2023-09-27T01:56:19.239Z,19.23
2023-09-27T02:01:22.106Z,19.36
2023-09-27T02:06:25.042Z,21.46
2023-09-27T02:11:27.976Z,21.43
2023-09-27T02:16:32.924Z,19.48
2023-09-27T02:21:35.666Z,19.45
2023-09-27T02:26:38.588Z,21.55
2023-09-27T02:31:41.379Z,21.60
2023-09-27T02:36:44.194Z,19.69
2023-09-27T02:41:46.897Z,19.63
2023-09-27T02:46:50.054Z,21.67
2023-09-27T02:51:55.352Z,21.74
2023-09-27T02:56:58.208Z,19.81
2023-09-27T03:02:00.989Z,19.92
2023-09-27T03:07:04.294Z,21.98
2023-09-27T03:12:08.054Z,21.93
2023-09-27T03:17:11.402Z,19.95
2023-09-27T03:22:14.302Z,19.95
2023-09-27T03:27:18.154Z,21.96
2023-09-27T03:32:21.310Z,21.60
2023-09-27T03:37:24.687Z,19.68
2023-09-27T03:42:28.101Z,19.67
2023-09-27T03:47:31.080Z,21.85
2023-09-27T03:52:34.104Z,21.71
2023-09-27T03:57:36.902Z,19.79
2023-09-27T04:02:39.767Z,19.71
2023-09-27T04:07:42.942Z,21.72
2023-09-27T04:12:45.758Z,21.46
2023-09-27T04:17:48.519Z,19.54
2023-09-27T04:22:51.416Z,19.56
2023-09-27T04:27:54.835Z,21.61
2023-09-27T04:32:57.615Z,21.62
2023-09-27T04:38:00.608Z,19.71
2023-09-27T04:43:03.670Z,19.68
2023-09-27T04:48:07.310Z,21.66
2023-09-27T04:53:11.050Z,21.62
2023-09-27T04:58:13.808Z,19.75
2023-09-27T05:03:16.632Z,19.76
2023-09-27T05:08:19.646Z,21.81
2023-09-27T05:13:22.954Z,21.77
2023-09-27T05:18:25.902Z,19.88
2023-09-27T05:23:28.925Z,19.87
2023-09-27T05:28:33.621Z,21.92
2023-09-27T05:33:36.492Z,21.94
2023-09-27T05:38:40.014Z,20.08
2023-09-27T05:43:42.989Z,20.09
2023-09-27T05:48:45.957Z,22.11
2023-09-27T05:53:53.688Z,22.25
2023-09-27T05:59:00.858Z,20.30
2023-09-27T06:04:04.996Z,20.35
2023-09-27T06:09:11.364Z,22.45
2023-09-27T06:14:15.370Z,23.33
2023-09-27T06:19:18.122Z,22.23
2023-09-27T06:24:20.901Z,20.53
2023-09-27T06:29:23.712Z,20.95
2023-09-27T06:34:27.509Z,23.19
2023-09-27T06:39:30.394Z,23.42
2023-09-27T06:44:35.353Z,21.76
2023-09-27T06:49:38.386Z,21.98
2023-09-27T06:54:42.063Z,24.09
2023-09-27T06:59:45.258Z,24.13
2023-09-27T07:04:48.977Z,22.46
2023-09-27T07:09:52.141Z,22.70
2023-09-27T07:14:54.866Z,24.75
2023-09-27T07:19:57.976Z,24.37
2023-09-27T07:25:02.930Z,22.78
2023-09-27T07:30:06.689Z,23.14
2023-09-27T07:35:11.658Z,25.05
2023-09-27T07:40:15.889Z,23.91
2023-09-27T07:45:23.584Z,23.97
2023-09-27T07:50:34.932Z,25.49
2023-09-27T07:55:44.639Z,24.16
2023-09-27T08:00:47.750Z,24.41
2023-09-27T08:05:50.807Z,25.77
2023-09-27T08:10:54.211Z,24.53
2023-09-27T08:15:57.183Z,24.97
2023-09-27T08:21:04.949Z,26.18
2023-09-27T08:26:13.773Z,24.83
2023-09-27T08:31:19.236Z,25.20
2023-09-27T08:36:22.178Z,26.59
2023-09-27T08:41:31.146Z,25.40
2023-09-27T08:46:37.428Z,24.70
2023-09-27T08:51:43.708Z,25.65
2023-09-27T08:56:55.236Z,27.20
2023-09-27T09:01:58.911Z,26.19
2023-09-27T09:07:04.603Z,25.67
2023-09-27T09:12:11.099Z,25.57
2023-09-27T09:17:19.346Z,27.29
2023-09-27T09:22:31.896Z,26.84
2023-09-27T09:27:35.577Z,26.41
2023-09-27T09:32:52.972Z,26.25
2023-09-27T09:37:56.698Z,26.25
2023-09-27T09:43:01.268Z,26.30
2023-09-27T09:48:05.080Z,26.38
2023-09-27T09:53:11.403Z,26.49
2023-09-27T09:58:37.173Z,26.66
2023-09-27T10:03:48.984Z,26.82
2023-09-27T10:08:53.254Z,26.94
2023-09-27T10:13:56.943Z,27.04
2023-09-27T10:19:02.938Z,27.26
2023-09-27T10:24:09.196Z,27.46
2023-09-27T10:29:17.010Z,27.56
2023-09-27T10:34:29.323Z,27.69
2023-09-27T10:39:34.292Z,27.81
2023-09-27T10:44:38.654Z,27.87
2023-09-27T10:49:43.234Z,28.12
2023-09-27T10:54:48.915Z,28.62
2023-09-27T10:59:53.843Z,29.33
2023-09-27T11:04:57.333Z,29.99
2023-09-27T11:10:02.751Z,30.68
2023-09-27T11:15:06.976Z,31.40
2023-09-27T11:20:14.165Z,32.20
2023-09-27T11:25:28.052Z,32.85
2023-09-27T11:30:33.688Z,33.32
2023-09-27T11:35:51.677Z,33.91
2023-09-27T11:40:55.397Z,34.64
2023-09-27T11:46:00.863Z,35.26
2023-09-27T11:51:06.478Z,36.08
2023-09-27T11:56:12.003Z,36.80
2023-09-27T12:01:15.928Z,37.30
2023-09-27T12:06:20.629Z,37.61
2023-09-27T12:11:26.846Z,38.23
2023-09-27T12:16:33.497Z,38.73
2023-09-27T12:21:37.337Z,38.82
2023-09-27T12:26:42.558Z,38.90
2023-09-27T12:31:45.550Z,39.52
2023-09-27T12:36:50.547Z,40.11
2023-09-27T12:41:53.903Z,40.37
2023-09-27T12:46:56.907Z,40.64
2023-09-27T12:51:59.878Z,40.84
2023-09-27T12:57:02.632Z,40.34
2023-09-27T13:02:05.440Z,38.87
2023-09-27T13:07:08.747Z,36.90
2023-09-27T13:12:11.621Z,35.23
2023-09-27T13:17:14.366Z,33.90
2023-09-27T13:22:17.360Z,32.65
2023-09-27T13:27:20.339Z,31.71
2023-09-27T14:57:42.040Z,28.26
2023-09-27T15:02:44.837Z,28.52
2023-09-27T15:07:47.737Z,29.40
2023-09-27T15:12:50.808Z,30.85
2023-09-27T15:17:53.702Z,31.42
2023-09-27T15:22:56.574Z,31.46
2023-09-27T15:28:00.849Z,32.02
2023-09-27T15:33:03.900Z,32.63
2023-09-27T15:38:06.996Z,32.12
2023-09-27T15:43:10.821Z,31.16
2023-09-27T15:48:13.693Z,30.16
2023-09-27T15:53:16.779Z,29.20
2023-09-27T15:58:19.727Z,28.46
2023-09-27T16:03:22.928Z,27.89
2023-09-27T16:08:28.410Z,27.40
2023-09-27T16:13:31.553Z,26.98
2023-09-27T16:25:12.926Z,26.24
2023-09-27T16:30:34.601Z,25.96
2023-09-27T16:35:38.620Z,25.69
2023-09-27T16:40:41.794Z,25.40
2023-09-27T16:45:45.050Z,25.13
2023-09-27T16:50:48.137Z,24.95
2023-09-27T16:55:51.304Z,24.78
2023-09-27T17:00:56.737Z,24.57
2023-09-27T17:05:59.829Z,24.36
2023-09-27T17:11:02.952Z,24.15
2023-09-27T17:16:08.634Z,23.97
2023-09-27T17:21:11.701Z,23.79
2023-09-27T17:26:14.808Z,23.58
2023-09-27T17:31:17.987Z,23.42
2023-09-27T17:36:21.028Z,23.23
2023-09-27T17:41:24.033Z,23.01
2023-09-27T17:46:28.927Z,22.77
2023-09-27T17:51:32.988Z,22.54
2023-09-27T17:56:36.159Z,22.32
2023-09-27T18:01:40.206Z,22.13
2023-09-27T18:06:43.427Z,22.00
2023-09-27T18:11:46.352Z,21.88
2023-09-27T18:16:49.287Z,21.77
2023-09-27T18:21:52.148Z,21.67
2023-09-27T18:26:55.744Z,21.57
2023-09-27T18:32:01.035Z,21.44
2023-09-27T18:37:04.404Z,22.43
2023-09-27T18:42:07.274Z,25.08
2023-09-27T18:47:10.469Z,25.41
2023-09-27T18:52:14.378Z,23.88
2023-09-27T18:57:17.107Z,22.97
2023-09-27T19:02:19.852Z,22.37
2023-09-27T19:07:23.675Z,21.91
2023-09-27T19:12:26.371Z,21.54
2023-09-27T19:17:29.093Z,21.22
2023-09-27T19:22:33.414Z,20.92
2023-09-27T19:27:36.181Z,21.82
2023-09-27T19:32:39.318Z,24.42
2023-09-27T19:37:42.755Z,24.77
2023-09-27T19:42:47.943Z,23.14
2023-09-27T19:47:51.373Z,22.10
2023-09-27T19:52:54.397Z,21.34
2023-09-27T19:57:57.478Z,20.72
2023-09-27T20:03:00.311Z,21.45
2023-09-27T20:08:03.431Z,23.95
2023-09-27T20:13:06.312Z,24.19
2023-09-27T20:18:09.137Z,22.47
2023-09-27T20:23:11.904Z,21.40
2023-09-27T20:28:14.790Z,20.74
2023-09-27T20:33:18.345Z,20.26
2023-09-27T20:38:21.050Z,21.23
2023-09-27T20:43:23.851Z,23.77
2023-09-27T20:48:26.763Z,23.98
2023-09-27T20:53:29.517Z,22.27
2023-09-27T20:58:32.930Z,21.19
2023-09-27T21:03:36.683Z,20.46
2023-09-27T21:08:39.573Z,21.03
2023-09-27T21:13:42.309Z,23.38
2023-09-27T21:18:45.166Z,23.48
2023-09-27T21:23:47.968Z,21.67
2023-09-27T21:28:50.966Z,20.53
2023-09-27T21:33:54.050Z,19.84
2023-09-27T21:38:57.041Z,20.53
2023-09-27T21:44:00.092Z,23.01
2023-09-27T21:49:02.907Z,23.20
2023-09-27T21:54:05.776Z,21.42
2023-09-27T21:59:09.511Z,20.31
2023-09-27T22:04:12.378Z,19.63
2023-09-27T22:09:15.225Z,20.32
2023-09-27T22:14:21.039Z,22.76
2023-09-27T22:19:29.037Z,22.93
2023-09-27T22:24:32.284Z,21.16
2023-09-27T22:29:35.081Z,20.12
2023-09-27T22:34:38.875Z,19.46
2023-09-27T22:39:41.851Z,20.24
2023-09-27T22:44:45.025Z,22.72
2023-09-27T22:49:47.801Z,22.95
2023-09-27T22:54:50.677Z,21.30
2023-09-27T22:59:54.927Z,20.31
2023-09-27T23:04:58.047Z,19.67
2023-09-27T23:10:04.606Z,20.36
2023-09-27T23:15:10.221Z,22.86
2023-09-27T23:20:13.107Z,23.00
2023-09-27T23:25:34.813Z,21.32
2023-09-27T23:30:51.080Z,20.24
2023-09-27T23:35:54.247Z,19.54
2023-09-27T23:41:00.574Z,20.21
2023-09-27T23:46:07.095Z,22.71
2023-09-27T23:51:09.911Z,22.87
2023-09-27T23:56:12.743Z,21.10
